sensor_id;sensor_type;location;lat;lon;timestamp;pressure;altitude;pressure_sealevel;temperature;humidity
53940;BME280;39850;43.324;21.916;2023-05-16T00:03:37;986.0;;;15.5;84.0
53940;BME280;39850;43.324;21.916;2023-05-16T00:08:14;986.0;;;15.5;84.0
53940;BME280;39850;43.324;21.916;2023-05-16T00:12:50;986.0;;;15.5;84.0
53940;BME280;39850;43.324;21.916;2023-05-16T00:54:27;985.0;;;15.3;82.0
53940;BME280;39850;43.324;21.916;2023-05-16T00:59:05;985.0;;;15.3;82.0
53940;BME280;39850;43.324;21.916;2023-05-16T01:03:43;985.0;;;15.3;82.0
53940;BME280;39850;43.324;21.916;2023-05-16T01:08:20;985.0;;;15.3;82.0
53940;BME280;39850;43.324;21.916;2023-05-16T01:13:35;985.0;;;15.3;82.0
53940;BME280;39850;43.324;21.916;2023-05-16T01:18:51;985.0;;;15.3;82.0
53940;BME280;39850;43.324;21.916;2023-05-16T01:24:12;985.0;;;15.3;82.0
53940;BME280;39850;43.324;21.916;2023-05-16T01:29:01;985.0;;;15.3;82.0
53940;BME280;39850;43.324;21.916;2023-05-16T02:07:34;985.0;;;15.5;85.0
53940;BME280;39850;43.324;21.916;2023-05-16T02:12:11;985.0;;;15.5;85.0
53940;BME280;39850;43.324;21.916;2023-05-16T02:16:48;985.0;;;15.5;85.0
53940;BME280;39850;43.324;21.916;2023-05-16T02:21:25;985.0;;;15.5;85.0
53940;BME280;39850;43.324;21.916;2023-05-16T02:26:02;985.0;;;15.5;85.0
53940;BME280;39850;43.324;21.916;2023-05-16T02:30:38;985.0;;;15.5;85.0
53940;BME280;39850;43.324;21.916;2023-05-16T02:35:15;985.0;;;15.5;85.0
53940;BME280;39850;43.324;21.916;2023-05-16T02:39:52;985.0;;;15.5;85.0
53940;BME280;39850;43.324;21.916;2023-05-16T02:44:29;985.0;;;15.5;85.0
53940;BME280;39850;43.324;21.916;2023-05-16T02:49:05;985.0;;;15.5;85.0
53940;BME280;39850;43.324;21.916;2023-05-16T03:25:58;984.0;;;14.7;86.0
53940;BME280;39850;43.324;21.916;2023-05-16T03:30:35;984.0;;;14.7;86.0
53940;BME280;39850;43.324;21.916;2023-05-16T03:35:12;984.0;;;14.6;86.0
53940;BME280;39850;43.324;21.916;2023-05-16T03:39:49;984.0;;;14.6;86.0
53940;BME280;39850;43.324;21.916;2023-05-16T03:44:26;984.0;;;14.4;86.0
53940;BME280;39850;43.324;21.916;2023-05-16T03:49:03;984.0;;;14.4;86.0
53940;BME280;39850;43.324;21.916;2023-05-16T03:53:39;984.0;;;14.4;86.0
53940;BME280;39850;43.324;21.916;2023-05-16T03:58:16;984.0;;;14.4;86.0
53940;BME280;39850;43.324;21.916;2023-05-16T04:02:52;984.0;;;14.4;86.0
53940;BME280;39850;43.324;21.916;2023-05-16T04:07:28;984.0;;;14.4;85.0
53940;BME280;39850;43.324;21.916;2023-05-16T04:12:07;984.0;;;14.4;85.0
53940;BME280;39850;43.324;21.916;2023-05-16T04:44:23;984.0;;;15.3;81.0
53940;BME280;39850;43.324;21.916;2023-05-16T04:49:00;984.0;;;15.3;81.0
53940;BME280;39850;43.324;21.916;2023-05-16T04:53:36;984.0;;;15.3;81.0
53940;BME280;39850;43.324;21.916;2023-05-16T04:58:13;984.0;;;15.4;81.0
53940;BME280;39850;43.324;21.916;2023-05-16T05:02:50;984.0;;;15.4;81.0
53940;BME280;39850;43.324;21.916;2023-05-16T05:07:26;984.0;;;15.4;81.0
53940;BME280;39850;43.324;21.916;2023-05-16T05:12:08;984.0;;;15.4;81.0
53940;BME280;39850;43.324;21.916;2023-05-16T05:16:45;984.0;;;15.5;81.0
53940;BME280;39850;43.324;21.916;2023-05-16T05:21:21;984.0;;;15.5;81.0
53940;BME280;39850;43.324;21.916;2023-05-16T06:07:26;983.0;;;15.4;80.0
53940;BME280;39850;43.324;21.916;2023-05-16T06:12:04;983.0;;;15.4;80.0
53940;BME280;39850;43.324;21.916;2023-05-16T06:16:42;984.0;;;15.4;79.0
53940;BME280;39850;43.324;21.916;2023-05-16T06:21:19;984.0;;;15.4;79.0
53940;BME280;39850;43.324;21.916;2023-05-16T06:25:55;984.0;;;15.4;79.0
53940;BME280;39850;43.324;21.916;2023-05-16T06:30:32;984.0;;;15.4;79.0
53940;BME280;39850;43.324;21.916;2023-05-16T06:35:09;984.0;;;15.4;78.0
53940;BME280;39850;43.324;21.916;2023-05-16T06:39:46;984.0;;;15.4;78.0
53940;BME280;39850;43.324;21.916;2023-05-16T06:44:23;984.0;;;15.6;78.0
53940;BME280;39850;43.324;21.916;2023-05-16T06:49:00;984.0;;;15.6;78.0
53940;BME280;39850;43.324;21.916;2023-05-16T06:53:36;984.0;;;15.6;78.0
53940;BME280;39850;43.324;21.916;2023-05-16T07:48:58;984.0;;;17.3;74.0
53940;BME280;39850;43.324;21.916;2023-05-16T07:53:35;984.0;;;17.3;74.0
53940;BME280;39850;43.324;21.916;2023-05-16T07:58:12;984.0;;;17.3;74.0
53940;BME280;39850;43.324;21.916;2023-05-16T08:02:49;984.0;;;17.3;74.0
53940;BME280;39850;43.324;21.916;2023-05-16T08:07:26;984.0;;;17.3;74.0
53940;BME280;39850;43.324;21.916;2023-05-16T08:12:04;984.0;;;17.3;74.0
53940;BME280;39850;43.324;21.916;2023-05-16T08:49:00;984.0;;;17.7;71.0
53940;BME280;39850;43.324;21.916;2023-05-16T08:54:09;984.0;;;17.7;71.0
53940;BME280;39850;43.324;21.916;2023-05-16T08:58:50;984.0;;;17.4;72.0
53940;BME280;39850;43.324;21.916;2023-05-16T09:03:27;984.0;;;17.4;72.0
53940;BME280;39850;43.324;21.916;2023-05-16T09:08:05;984.0;;;17.5;72.0
53940;BME280;39850;43.324;21.916;2023-05-16T09:12:43;984.0;;;17.5;72.0
53940;BME280;39850;43.324;21.916;2023-05-16T09:17:20;984.0;;;17.3;72.0
53940;BME280;39850;43.324;21.916;2023-05-16T09:21:56;984.0;;;17.3;72.0
53940;BME280;39850;43.324;21.916;2023-05-16T09:26:38;984.0;;;17.5;73.0
53940;BME280;39850;43.324;21.916;2023-05-16T09:31:28;984.0;;;17.5;73.0
53940;BME280;39850;43.324;21.916;2023-05-16T10:08:41;984.0;;;19.9;69.0
53940;BME280;39850;43.324;21.916;2023-05-16T10:13:35;984.0;;;19.9;69.0
53940;BME280;39850;43.324;21.916;2023-05-16T10:18:21;984.0;;;19.8;69.0
53940;BME280;39850;43.324;21.916;2023-05-16T10:23:03;984.0;;;19.8;69.0
53940;BME280;39850;43.324;21.916;2023-05-16T10:27:45;984.0;;;19.8;68.0
53940;BME280;39850;43.324;21.916;2023-05-16T10:32:27;984.0;;;19.8;68.0
53940;BME280;39850;43.324;21.916;2023-05-16T10:37:08;984.0;;;19.8;67.0
53940;BME280;39850;43.324;21.916;2023-05-16T10:41:46;984.0;;;19.8;67.0
53940;BME280;39850;43.324;21.916;2023-05-16T10:46:26;984.0;;;19.8;66.0
53940;BME280;39850;43.324;21.916;2023-05-16T10:51:37;984.0;;;19.8;66.0
53940;BME280;39850;43.324;21.916;2023-05-16T11:29:47;984.0;;;20.0;66.0
53940;BME280;39850;43.324;21.916;2023-05-16T11:34:25;984.0;;;20.0;66.0
53940;BME280;39850;43.324;21.916;2023-05-16T11:39:07;984.0;;;20.0;67.0
53940;BME280;39850;43.324;21.916;2023-05-16T11:43:45;984.0;;;20.0;67.0
53940;BME280;39850;43.324;21.916;2023-05-16T11:48:24;984.0;;;20.0;67.0
53940;BME280;39850;43.324;21.916;2023-05-16T11:53:02;984.0;;;20.0;67.0
53940;BME280;39850;43.324;21.916;2023-05-16T11:57:41;984.0;;;20.0;67.0
53940;BME280;39850;43.324;21.916;2023-05-16T12:02:18;984.0;;;20.0;67.0
53940;BME280;39850;43.324;21.916;2023-05-16T12:07:01;984.0;;;20.0;68.0
53940;BME280;39850;43.324;21.916;2023-05-16T12:11:43;984.0;;;20.0;68.0
53940;BME280;39850;43.324;21.916;2023-05-16T12:49:02;984.0;;;18.0;81.0
53940;BME280;39850;43.324;21.916;2023-05-16T12:53:48;984.0;;;18.0;81.0
53940;BME280;39850;43.324;21.916;2023-05-16T12:58:29;984.0;;;18.0;82.0
53940;BME280;39850;43.324;21.916;2023-05-16T13:03:07;984.0;;;18.0;82.0
53940;BME280;39850;43.324;21.916;2023-05-16T13:07:44;984.0;;;18.0;83.0
53940;BME280;39850;43.324;21.916;2023-05-16T13:12:20;984.0;;;18.0;83.0
53940;BME280;39850;43.324;21.916;2023-05-16T13:16:57;984.0;;;18.0;84.0
53940;BME280;39850;43.324;21.916;2023-05-16T13:21:34;984.0;;;18.0;84.0
53940;BME280;39850;43.324;21.916;2023-05-16T13:26:11;984.0;;;18.0;84.0
53940;BME280;39850;43.324;21.916;2023-05-16T13:30:47;984.0;;;18.0;84.0
53940;BME280;39850;43.324;21.916;2023-05-16T13:35:24;984.0;;;18.0;84.0
53940;BME280;39850;43.324;21.916;2023-05-16T14:07:40;983.0;;;19.1;79.0
53940;BME280;39850;43.324;21.916;2023-05-16T14:12:17;983.0;;;19.1;79.0
53940;BME280;39850;43.324;21.916;2023-05-16T14:16:54;983.0;;;19.1;79.0
53940;BME280;39850;43.324;21.916;2023-05-16T14:21:30;983.0;;;19.1;79.0
53940;BME280;39850;43.324;21.916;2023-05-16T14:26:07;983.0;;;18.8;79.0
53940;BME280;39850;43.324;21.916;2023-05-16T14:30:44;983.0;;;18.8;79.0
53940;BME280;39850;43.324;21.916;2023-05-16T14:35:21;983.0;;;18.8;79.0
53940;BME280;39850;43.324;21.916;2023-05-16T14:39:57;983.0;;;18.6;79.0
53940;BME280;39850;43.324;21.916;2023-05-16T14:44:34;983.0;;;18.6;79.0
53940;BME280;39850;43.324;21.916;2023-05-16T14:49:11;983.0;;;18.6;79.0
53940;BME280;39850;43.324;21.916;2023-05-16T14:53:48;983.0;;;18.6;79.0
53940;BME280;39850;43.324;21.916;2023-05-16T15:30:41;982.0;;;18.2;78.0
53940;BME280;39850;43.324;21.916;2023-05-16T15:35:18;982.0;;;18.2;78.0
53940;BME280;39850;43.324;21.916;2023-05-16T15:39:55;982.0;;;18.2;78.0
53940;BME280;39850;43.324;21.916;2023-05-16T15:44:32;982.0;;;18.2;78.0
53940;BME280;39850;43.324;21.916;2023-05-16T15:49:09;982.0;;;18.2;78.0
53940;BME280;39850;43.324;21.916;2023-05-16T15:53:47;982.0;;;18.2;78.0
53940;BME280;39850;43.324;21.916;2023-05-16T15:58:24;982.0;;;18.5;78.0
53940;BME280;39850;43.324;21.916;2023-05-16T16:03:01;982.0;;;18.5;78.0
53940;BME280;39850;43.324;21.916;2023-05-16T16:07:37;983.0;;;18.8;77.0
53940;BME280;39850;43.324;21.916;2023-05-16T16:12:13;983.0;;;18.8;77.0
53940;BME280;39850;43.324;21.916;2023-05-16T16:49:08;982.0;;;18.1;75.0
53940;BME280;39850;43.324;21.916;2023-05-16T16:53:46;982.0;;;18.1;75.0
53940;BME280;39850;43.324;21.916;2023-05-16T16:58:22;982.0;;;18.2;76.0
53940;BME280;39850;43.324;21.916;2023-05-16T17:02:59;982.0;;;18.2;76.0
53940;BME280;39850;43.324;21.916;2023-05-16T17:07:35;982.0;;;18.2;77.0
53940;BME280;39850;43.324;21.916;2023-05-16T17:12:12;982.0;;;18.2;77.0
53940;BME280;39850;43.324;21.916;2023-05-16T17:16:49;982.0;;;18.2;77.0
53940;BME280;39850;43.324;21.916;2023-05-16T17:21:26;982.0;;;18.2;77.0
53940;BME280;39850;43.324;21.916;2023-05-16T17:26:02;982.0;;;18.2;77.0
53940;BME280;39850;43.324;21.916;2023-05-16T17:30:39;982.0;;;18.2;77.0
53940;BME280;39850;43.324;21.916;2023-05-16T17:35:16;982.0;;;18.2;77.0
53940;BME280;39850;43.324;21.916;2023-05-16T18:07:32;982.0;;;18.2;75.0
53940;BME280;39850;43.324;21.916;2023-05-16T18:12:10;982.0;;;18.2;75.0
53940;BME280;39850;43.324;21.916;2023-05-16T18:16:46;982.0;;;18.2;75.0
53940;BME280;39850;43.324;21.916;2023-05-16T18:21:24;982.0;;;18.2;75.0
53940;BME280;39850;43.324;21.916;2023-05-16T18:26:01;982.0;;;18.2;75.0
53940;BME280;39850;43.324;21.916;2023-05-16T18:30:38;983.0;;;18.2;75.0
53940;BME280;39850;43.324;21.916;2023-05-16T18:35:15;983.0;;;18.2;75.0
53940;BME280;39850;43.324;21.916;2023-05-16T18:39:52;983.0;;;18.0;75.0
53940;BME280;39850;43.324;21.916;2023-05-16T18:44:29;983.0;;;18.0;75.0
53940;BME280;39850;43.324;21.916;2023-05-16T18:49:05;983.0;;;17.8;75.0
53940;BME280;39850;43.324;21.916;2023-05-16T18:53:41;983.0;;;17.8;75.0
53940;BME280;39850;43.324;21.916;2023-05-16T19:30:36;983.0;;;17.3;78.0
53940;BME280;39850;43.324;21.916;2023-05-16T19:35:12;983.0;;;17.3;78.0
53940;BME280;39850;43.324;21.916;2023-05-16T19:39:49;983.0;;;17.3;79.0
53940;BME280;39850;43.324;21.916;2023-05-16T19:44:26;983.0;;;17.3;79.0
53940;BME280;39850;43.324;21.916;2023-05-16T19:49:04;983.0;;;17.3;79.0
53940;BME280;39850;43.324;21.916;2023-05-16T19:53:41;983.0;;;17.3;79.0
53940;BME280;39850;43.324;21.916;2023-05-16T19:58:18;983.0;;;17.3;79.0
53940;BME280;39850;43.324;21.916;2023-05-16T20:02:54;983.0;;;17.3;79.0
53940;BME280;39850;43.324;21.916;2023-05-16T20:07:31;983.0;;;17.3;79.0
53940;BME280;39850;43.324;21.916;2023-05-16T20:12:09;983.0;;;17.3;79.0
53940;BME280;39850;43.324;21.916;2023-05-16T20:16:45;983.0;;;17.3;79.0
53940;BME280;39850;43.324;21.916;2023-05-16T20:49:02;983.0;;;17.2;78.0
53940;BME280;39850;43.324;21.916;2023-05-16T20:53:38;983.0;;;17.2;78.0
53940;BME280;39850;43.324;21.916;2023-05-16T20:58:15;983.0;;;17.2;78.0
53940;BME280;39850;43.324;21.916;2023-05-16T21:02:51;983.0;;;17.2;78.0
53940;BME280;39850;43.324;21.916;2023-05-16T21:07:28;983.0;;;17.1;78.0
53940;BME280;39850;43.324;21.916;2023-05-16T21:12:07;983.0;;;17.1;78.0
53940;BME280;39850;43.324;21.916;2023-05-16T21:16:44;983.0;;;17.1;78.0
53940;BME280;39850;43.324;21.916;2023-05-16T21:21:20;983.0;;;17.1;78.0
53940;BME280;39850;43.324;21.916;2023-05-16T21:25:57;983.0;;;17.1;78.0
53940;BME280;39850;43.324;21.916;2023-05-16T21:30:33;983.0;;;17.1;79.0
53940;BME280;39850;43.324;21.916;2023-05-16T21:35:10;983.0;;;17.1;79.0
53940;BME280;39850;43.324;21.916;2023-05-16T22:12:01;983.0;;;17.3;80.0
53940;BME280;39850;43.324;21.916;2023-05-16T22:16:38;983.0;;;17.3;80.0
53940;BME280;39850;43.324;21.916;2023-05-16T22:21:15;984.0;;;17.3;80.0
53940;BME280;39850;43.324;21.916;2023-05-16T22:25:51;984.0;;;17.3;80.0
53940;BME280;39850;43.324;21.916;2023-05-16T22:30:28;984.0;;;17.3;80.0
53940;BME280;39850;43.324;21.916;2023-05-16T22:35:07;984.0;;;17.3;80.0
53940;BME280;39850;43.324;21.916;2023-05-16T22:39:44;984.0;;;17.3;81.0
53940;BME280;39850;43.324;21.916;2023-05-16T22:44:21;984.0;;;17.3;81.0
53940;BME280;39850;43.324;21.916;2023-05-16T22:48:57;984.0;;;17.3;81.0
53940;BME280;39850;43.324;21.916;2023-05-16T22:53:34;984.0;;;17.3;81.0
53940;BME280;39850;43.324;21.916;2023-05-16T23:30:27;984.0;;;15.8;84.0
53940;BME280;39850;43.324;21.916;2023-05-16T23:35:08;984.0;;;15.8;84.0
53940;BME280;39850;43.324;21.916;2023-05-16T23:39:45;984.0;;;15.6;85.0
53940;BME280;39850;43.324;21.916;2023-05-16T23:44:21;984.0;;;15.6;85.0
53940;BME280;39850;43.324;21.916;2023-05-16T23:48:58;984.0;;;15.3;85.0
53940;BME280;39850;43.324;21.916;2023-05-16T23:53:35;984.0;;;15.3;85.0
53940;BME280;39850;43.324;21.916;2023-05-16T23:58:12;984.0;;;15.3;85.0
